Главная страница
METAR-TAF:

METAR-TAF

Аэропорты :

Триполи, Ливия

широта: 32-54N, долгота: 13-17E, высота над уровнем моря: 11 м

METAR: отсутствует

Время: 19:42 (17:42 UTC)

Прогноз

Эта сводка был подготовлена 6 часа и 42 минут назад, в 11:00 UTC
Прогноз действительный с 28-го 12 UTC до 28-го 21 UTC
Ветер 10 Узел от западно-северо-западный
Видимость 10 км и более
Нет облачности ниже 1500 м, и нет кучево-дождевой облачности

TAF: HLLM 281100Z 2812/2821 30010KT CAVOK

Метеонаблюдения и прогнозы для более 4000 аэропортов (сводки METAR и TAF).

Имеющиеся станции представлены на карте желтыми и красными точками.

Чтобы увидеть название станции, наведите на нее мышь.

Затем щелкните, чтобы увидеть метеонаблюдения и метеопрогнозы.

Управление картой: чтобы увеличить масштаб, щелкните зеленые кнопки с черным крестиком; чтобы уменьшить масштаб, щелкните зеленую кнопку с тире; для просмотра соседних карт щелкайте зеленые стрелки.


METAR-TAF: